Time;durP1;ratioP1;P1;durP2;ratioP2;P2;SDS_P1;SDS_P2;PMS_P1;PMS_P2;Temp;Humidity;BMP_temperature;BMP_pressure;BME280_temperature;BME280_humidity;BME280_pressure;Samples;Min_cycle;Max_cycle;Signal;HPM_P1;HPM_P2
2022/07/21 00:00:16;;;;;;;10.55;3.40;;;;;;;26.93;47.05;100517.16;4937465;29;20433;-89
2022/07/21 00:02:42;;;;;;;9.88;3.22;;;;;;;26.88;47.42;100517.13;4920431;29;20079;-90
2022/07/21 00:05:08;;;;;;;7.28;3.08;;;;;;;26.93;47.85;100521.78;4937937;29;20142;-91
2022/07/21 00:07:33;;;;;;;10.40;3.38;;;;;;;26.89;48.19;100515.22;4938228;29;20338;-90
2022/07/21 00:09:59;;;;;;;8.25;3.17;;;;;;;26.65;48.52;100515.69;4938764;29;20055;-88
2022/07/21 00:12:27;;;;;;;11.60;3.45;;;;;;;26.57;48.85;100512.69;4945371;29;20103;-92
2022/07/21 00:14:53;;;;;;;9.93;2.92;;;;;;;26.62;48.83;100507.25;4944925;29;20048;-91
2022/07/21 00:17:18;;;;;;;9.30;3.38;;;;;;;26.57;48.62;100529.00;4944700;29;20034;-91
2022/07/21 00:19:44;;;;;;;15.40;3.30;;;;;;;26.61;48.89;100525.47;4928990;29;20027;-89
2022/07/21 00:22:09;;;;;;;10.32;3.42;;;;;;;26.75;48.30;100531.22;4942328;29;20046;-92
2022/07/21 00:24:35;;;;;;;11.32;3.85;;;;;;;26.81;48.43;100519.31;4928712;29;20039;-92
2022/07/21 00:27:00;;;;;;;7.30;2.85;;;;;;;26.58;48.72;100519.78;4945523;29;20035;-90
2022/07/21 00:29:26;;;;;;;6.40;2.83;;;;;;;26.55;48.47;100520.28;4942742;29;20389;-92
2022/07/21 00:31:52;;;;;;;7.93;3.42;;;;;;;26.44;48.20;100524.06;4943574;29;20063;-91
2022/07/21 00:34:17;;;;;;;12.70;3.10;;;;;;;26.37;48.46;100523.50;4926316;29;20098;-90
2022/07/21 00:36:43;;;;;;;8.48;3.50;;;;;;;26.34;48.09;100521.31;4943285;29;20053;-89
2022/07/21 00:39:08;;;;;;;6.68;3.28;;;;;;;26.34;48.54;100519.41;4911068;29;20067;-89
2022/07/21 00:41:34;;;;;;;13.50;3.92;;;;;;;26.24;49.21;100523.97;4941221;29;20035;-91
2022/07/21 00:44:00;;;;;;;6.90;3.50;;;;;;;26.22;49.06;100526.16;4940568;29;20043;-87
2022/07/21 00:46:25;;;;;;;11.18;3.50;;;;;;;26.20;49.56;100513.66;4940679;29;20368;-92
2022/07/21 00:48:51;;;;;;;9.15;3.17;;;;;;;26.30;48.99;100521.03;4923785;29;20059;-91
2022/07/21 00:51:16;;;;;;;8.73;3.50;;;;;;;26.39;48.42;100507.72;4941148;29;20116;-92
2022/07/21 00:53:42;;;;;;;7.28;3.28;;;;;;;26.33;49.14;100506.06;4924203;29;20051;-91
2022/07/21 00:56:10;;;;;;;11.25;3.50;;;;;;;26.34;49.57;100503.09;4940246;29;20036;-88
2022/07/21 00:58:36;;;;;;;9.20;3.65;;;;;;;26.42;49.67;100510.72;4940469;29;20163;-89
2022/07/21 01:01:02;;;;;;;9.18;3.20;;;;;;;26.43;49.01;100506.13;4923490;29;20485;-91
2022/07/21 01:03:27;;;;;;;9.77;3.65;;;;;;;26.41;49.02;100508.28;4940274;29;20040;-92
2022/07/21 01:05:53;;;;;;;10.63;3.63;;;;;;;26.44;49.41;100507.75;4940344;29;20040;-87
2022/07/21 01:08:21;;;;;;;7.07;3.45;;;;;;;26.41;49.33;100502.88;4940129;29;20087;-92
2022/07/21 01:10:47;;;;;;;10.77;3.65;;;;;;;26.46;49.22;100500.16;4939472;29;20063;-91
2022/07/21 01:13:12;;;;;;;7.25;3.72;;;;;;;26.42;49.85;100512.63;4940565;29;20098;-93
2022/07/21 01:15:38;;;;;;;8.95;3.53;;;;;;;26.43;49.64;100511.56;4941628;29;20036;-90
2022/07/21 01:18:03;;;;;;;8.02;3.60;;;;;;;26.37;50.18;100512.63;4940975;29;20114;-86
2022/07/21 01:20:34;;;;;;;12.05;3.60;;;;;;;26.41;49.48;100511.84;4941958;29;20115;-90
2022/07/21 01:23:00;;;;;;;8.48;3.90;;;;;;;26.29;50.37;100513.13;4949526;29;20042;-86
2022/07/21 01:25:26;;;;;;;9.63;4.07;;;;;;;26.16;50.02;100514.41;4960154;29;20031;-87
2022/07/21 01:27:51;;;;;;;15.68;4.57;;;;;;;26.10;50.02;100521.72;4943067;29;20031;-86
2022/07/21 01:30:18;;;;;;;10.35;4.22;;;;;;;26.04;49.73;100520.06;4960494;29;20036;-89
2022/07/21 01:32:44;;;;;;;9.38;4.25;;;;;;;26.00;49.83;100510.78;4949352;29;20028;-89
2022/07/21 01:35:12;;;;;;;5.25;3.72;;;;;;;25.93;50.42;100523.78;4942887;29;20547;-90
2022/07/21 01:37:42;;;;;;;11.88;3.97;;;;;;;25.85;50.18;100518.88;4944573;29;20032;-92
2022/07/21 01:42:52;;;;;;;9.52;4.28;;;;;;;25.63;50.40;100518.97;4938660;29;20035;-90
2022/07/21 01:45:18;;;;;;;15.00;4.00;;;;;;;25.70;50.38;100519.59;4921458;29;20461;-90
2022/07/21 01:47:44;;;;;;;11.85;4.15;;;;;;;25.63;50.25;100515.44;4938108;29;20036;-90
2022/07/21 01:50:10;;;;;;;5.35;4.30;;;;;;;25.69;50.48;100511.69;4938378;29;20067;-91
2022/07/21 01:52:36;;;;;;;8.27;4.70;;;;;;;25.68;50.23;100512.78;4937940;29;20031;-92
2022/07/21 01:55:01;;;;;;;7.97;4.13;;;;;;;25.63;50.72;100515.44;4937945;29;20047;-92
2022/07/21 01:57:27;;;;;;;8.77;4.70;;;;;;;25.66;50.21;100513.03;4938581;29;20111;-91
2022/07/21 01:59:54;;;;;;;10.48;4.38;;;;;;;25.59;51.36;100507.00;4922210;29;20052;-91
2022/07/21 02:02:21;;;;;;;12.13;4.65;;;;;;;25.58;50.94;100507.28;4939358;29;20031;-92
2022/07/21 02:04:50;;;;;;;12.40;5.00;;;;;;;25.61;51.10;100501.34;4939723;29;20488;-91
2022/07/21 02:07:16;;;;;;;7.35;4.10;;;;;;;25.56;51.12;100504.81;4944065;29;20095;-91
2022/07/21 02:09:42;;;;;;;10.43;4.57;;;;;;;25.71;51.02;100498.69;4915724;29;20051;-92
2022/07/21 02:12:08;;;;;;;10.80;4.38;;;;;;;25.90;51.69;100496.34;4947788;29;20036;-91
2022/07/21 02:14:34;;;;;;;11.80;4.43;;;;;;;25.69;52.18;100489.97;4932277;29;20067;-91
2022/07/21 02:16:59;;;;;;;10.52;3.83;;;;;;;25.74;51.65;100491.91;4945789;29;20043;-92
2022/07/21 02:19:25;;;;;;;12.38;4.65;;;;;;;25.56;51.77;100495.84;4940251;29;20103;-93
2022/07/21 02:21:50;;;;;;;9.95;4.32;;;;;;;25.36;52.66;100495.66;4941127;29;20063;-92
2022/07/21 02:24:16;;;;;;;12.00;4.65;;;;;;;25.39;52.94;100495.97;4938403;29;20027;-91
2022/07/21 02:26:42;;;;;;;12.98;5.00;;;;;;;25.45;52.98;100491.41;4940174;29;20392;-92
2022/07/21 02:29:07;;;;;;;5.50;4.03;;;;;;;25.56;52.20;100493.97;4922756;29;20126;-91
2022/07/21 02:31:33;;;;;;;7.78;4.70;;;;;;;25.34;53.12;100497.84;4938308;29;20123;-91
2022/07/21 02:33:58;;;;;;;6.10;4.40;;;;;;;25.40;53.09;100496.78;4938670;29;20090;-92
2022/07/21 02:36:24;;;;;;;11.13;4.63;;;;;;;25.25;53.57;100504.81;4938431;29;20043;-92
2022/07/21 02:38:50;;;;;;;8.68;4.60;;;;;;;25.26;53.85;100495.59;4938941;29;20387;-90
2022/07/21 02:41:16;;;;;;;8.95;4.53;;;;;;;25.19;53.58;100496.63;4938248;29;20032;-90
2022/07/21 02:43:42;;;;;;;7.63;4.40;;;;;;;25.19;53.56;100502.06;4940487;29;20122;-92
2022/07/21 02:46:07;;;;;;;15.60;4.70;;;;;;;25.36;53.29;100507.34;4942423;29;20032;-89
2022/07/21 02:48:33;;;;;;;9.75;5.00;;;;;;;25.33;53.45;100498.91;4929036;29;20036;-91
2022/07/21 02:50:59;;;;;;;14.23;5.90;;;;;;;25.15;54.13;100494.72;4945619;29;20035;-93
2022/07/21 02:53:26;;;;;;;8.60;4.60;;;;;;;25.15;54.27;100494.72;4939896;29;20046;-90
2022/07/21 02:55:52;;;;;;;9.60;4.50;;;;;;;25.18;53.97;100500.44;4939596;29;20134;-86
2022/07/21 02:58:26;;;;;;;14.85;4.78;;;;;;;25.25;53.75;100502.94;4942695;29;20028;-87
2022/07/21 03:00:56;;;;;;;8.65;5.10;;;;;;;25.30;53.79;100499.44;4942775;29;20040;-91
2022/07/21 03:03:25;;;;;;;8.65;4.95;;;;;;;25.26;53.97;100512.69;4939687;29;20114;-88
2022/07/21 03:05:51;;;;;;;9.32;4.78;;;;;;;25.29;53.48;100511.38;4942326;29;20028;-89
2022/07/21 03:08:18;;;;;;;8.05;4.82;;;;;;;25.17;54.03;100508.81;4922694;29;20063;-86
2022/07/21 03:10:43;;;;;;;8.55;4.82;;;;;;;25.18;54.14;100503.16;4938897;29;20040;-88
2022/07/21 03:13:09;;;;;;;9.32;4.82;;;;;;;25.38;53.72;100499.78;4939652;29;20117;-89
2022/07/21 03:15:36;;;;;;;15.20;5.70;;;;;;;25.23;54.00;100496.09;4922937;29;20040;-90
2022/07/21 03:18:02;;;;;;;10.98;5.40;;;;;;;25.10;54.23;100492.75;4923037;29;20047;-90
2022/07/21 03:20:31;;;;;;;10.77;5.40;;;;;;;24.87;55.37;100497.69;4921730;29;20111;-88
2022/07/21 03:22:56;;;;;;;9.35;5.78;;;;;;;24.88;55.96;100494.72;4921999;29;20047;-89
2022/07/21 03:25:22;;;;;;;9.35;4.97;;;;;;;24.89;55.86;100504.47;4939323;29;20103;-90
2022/07/21 03:27:49;;;;;;;10.70;5.45;;;;;;;24.98;55.35;100497.53;4938122;29;20474;-89
2022/07/21 03:30:15;;;;;;;11.18;5.38;;;;;;;24.77;56.53;100497.56;4921102;29;20065;-90
2022/07/21 03:32:44;;;;;;;16.60;5.75;;;;;;;24.78;56.90;100500.03;4910721;29;20032;-86
2022/07/21 03:35:12;;;;;;;13.32;5.18;;;;;;;24.74;56.82;100509.72;4946943;29;20040;-88
2022/07/21 03:37:50;;;;;;;9.20;5.68;;;;;;;24.68;56.77;100503.44;4949635;29;20072;-87
2022/07/21 03:40:17;;;;;;;12.65;5.22;;;;;;;24.73;56.94;100508.09;4955647;29;20042;-86
2022/07/21 03:42:43;;;;;;;9.57;5.13;;;;;;;24.82;56.93;100503.03;4954015;29;20051;-86
2022/07/21 03:45:09;;;;;;;8.52;5.47;;;;;;;24.92;56.59;100511.31;4954701;29;20035;-85
2022/07/21 03:47:35;;;;;;;8.57;5.72;;;;;;;24.76;57.29;100512.19;4960435;29;20123;-85
2022/07/21 03:50:01;;;;;;;11.18;5.30;;;;;;;24.49;57.64;100512.97;4956092;29;20404;-87
2022/07/21 03:52:27;;;;;;;10.48;5.40;;;;;;;24.46;57.89;100509.97;4912945;29;20063;-90
2022/07/21 03:55:07;;;;;;;10.85;5.78;;;;;;;24.42;58.23;100515.09;4925022;29;20035;-88
2022/07/21 03:58:03;;;;;;;11.52;5.78;;;;;;;24.33;58.33;100522.00;4941222;29;20047;-90
2022/07/21 04:00:32;;;;;;;15.77;6.30;;;;;;;24.30;58.50;100518.97;4927947;29;20043;-90
2022/07/21 04:02:59;;;;;;;12.82;6.25;;;;;;;24.29;58.81;100528.19;4925834;29;20059;-90
2022/07/21 04:05:25;;;;;;;10.43;6.60;;;;;;;24.25;58.68;100521.63;4923419;29;20039;-86
2022/07/21 04:07:51;;;;;;;12.15;6.25;;;;;;;24.33;58.38;100523.91;4939802;29;20042;-83
2022/07/21 04:10:24;;;;;;;14.80;6.13;;;;;;;24.29;59.12;100520.88;4921952;29;20047;-83
2022/07/21 04:12:50;;;;;;;11.73;6.32;;;;;;;24.26;59.56;100534.09;4939162;29;20031;-85
2022/07/21 04:15:16;;;;;;;7.40;6.25;;;;;;;24.22;59.76;100522.13;4939844;29;20388;-87
2022/07/21 04:17:42;;;;;;;11.73;6.55;;;;;;;24.21;59.79;100528.59;4941473;29;20027;-86
2022/07/21 04:20:17;;;;;;;11.13;6.97;;;;;;;24.30;59.60;100535.22;4939636;29;20046;-86
2022/07/21 04:22:43;;;;;;;14.35;7.80;;;;;;;24.35;59.59;100532.59;4939596;29;20045;-86
2022/07/21 04:25:09;;;;;;;11.45;6.45;;;;;;;24.40;59.60;100535.34;4939943;29;20504;-85
2022/07/21 04:27:36;;;;;;;12.80;8.18;;;;;;;24.42;59.52;100539.47;4941411;29;20024;-85
2022/07/21 04:30:03;;;;;;;15.95;8.77;;;;;;;24.45;59.64;100544.38;4923196;29;20051;-86
2022/07/21 04:32:29;;;;;;;20.88;9.30;;;;;;;24.45;60.07;100541.66;4923713;29;20485;-86
2022/07/21 04:34:54;;;;;;;22.17;9.20;;;;;;;24.43;60.76;100540.25;4941081;29;20083;-86
2022/07/21 04:37:20;;;;;;;19.63;9.43;;;;;;;24.41;60.75;100542.41;4940374;29;20031;-86
2022/07/21 04:39:46;;;;;;;21.10;10.68;;;;;;;24.38;61.67;100549.16;4941122;29;20059;-86
2022/07/21 04:42:11;;;;;;;25.58;11.70;;;;;;;24.42;61.83;100546.78;4942197;29;20032;-88
2022/07/21 04:44:38;;;;;;;22.83;11.10;;;;;;;24.41;62.36;100537.00;4942678;29;20028;-86
2022/07/21 04:47:03;;;;;;;22.73;11.30;;;;;;;24.39;63.21;100544.56;4942478;29;20102;-85
2022/07/21 04:49:29;;;;;;;22.30;10.73;;;;;;;24.34;63.34;100536.34;4942237;29;20047;-84
2022/07/21 04:51:54;;;;;;;20.73;10.50;;;;;;;24.29;63.42;100536.31;4944131;29;20072;-85
2022/07/21 04:54:20;;;;;;;21.92;9.50;;;;;;;24.41;62.53;100537.81;4960605;29;20047;-84
2022/07/21 04:56:45;;;;;;;20.30;9.95;;;;;;;24.35;63.04;100541.53;4960711;29;20038;-85
2022/07/21 04:59:11;;;;;;;23.70;9.48;;;;;;;24.29;63.46;100549.84;4961448;29;20039;-86
2022/07/21 05:01:38;;;;;;;18.15;9.80;;;;;;;24.32;63.23;100549.34;4943497;29;20028;-86
2022/07/21 05:04:32;;;;;;;23.63;9.27;;;;;;;24.54;62.62;100555.56;4959512;29;20087;-91
2022/07/21 05:06:58;;;;;;;24.73;9.73;;;;;;;24.43;62.51;100559.22;4923280;29;20075;-83
2022/07/21 05:09:24;;;;;;;27.63;9.68;;;;;;;24.50;62.81;100554.44;4927387;29;20061;-82
2022/07/21 05:11:53;;;;;;;36.85;10.57;;;;;;;24.57;62.41;100557.78;4939018;29;20374;-82
2022/07/21 05:14:18;;;;;;;25.77;11.13;;;;;;;24.54;62.18;100564.53;4939781;29;20050;-85
2022/07/21 05:16:44;;;;;;;24.90;12.65;;;;;;;24.60;61.90;100557.28;4939525;29;20047;-86
2022/07/21 05:19:10;;;;;;;36.55;11.55;;;;;;;24.61;62.69;100558.91;4942120;29;20512;-84
2022/07/21 05:21:39;;;;;;;19.58;10.52;;;;;;;24.82;61.85;100560.84;4944568;29;20032;-84
2022/07/21 05:24:09;;;;;;;23.20;11.30;;;;;;;24.86;61.47;100561.94;4949005;29;20047;-87
2022/07/21 05:26:35;;;;;;;25.98;11.90;;;;;;;24.93;61.75;100567.97;4951100;29;20066;-86
2022/07/21 05:29:03;;;;;;;17.70;11.18;;;;;;;25.04;61.72;100564.31;4976216;29;20028;-85
2022/07/21 05:31:32;;;;;;;34.55;12.75;;;;;;;25.28;60.67;100558.56;4956133;29;20043;-85
2022/07/21 05:33:57;;;;;;;28.73;12.68;;;;;;;25.28;60.98;100559.38;4967892;29;20118;-88
2022/07/21 05:36:32;;;;;;;28.70;12.07;;;;;;;25.33;61.07;100555.88;4969460;29;20035;-91
2022/07/21 05:38:57;;;;;;;27.58;11.77;;;;;;;25.44;60.58;100557.63;4962894;29;20035;-88
2022/07/21 05:41:23;;;;;;;22.15;13.00;;;;;;;25.48;59.92;100564.16;4957654;29;20424;-88
2022/07/21 05:43:48;;;;;;;27.95;13.15;;;;;;;25.71;59.43;100574.69;4940108;29;20377;-87
2022/07/21 05:46:17;;;;;;;29.10;12.65;;;;;;;25.85;58.60;100575.91;4958209;29;20110;-89
2022/07/21 05:48:43;;;;;;;30.45;12.38;;;;;;;26.09;57.55;100566.25;4957145;29;20031;-89
2022/07/21 05:51:08;;;;;;;25.70;12.35;;;;;;;26.22;57.15;100570.41;4956951;29;20019;-86
2022/07/21 05:53:34;;;;;;;22.30;12.18;;;;;;;26.24;57.42;100573.72;4957329;29;20042;-87
2022/07/21 05:55:59;;;;;;;31.80;12.38;;;;;;;26.42;56.56;100570.53;4940146;29;20449;-89
2022/07/21 05:58:25;;;;;;;26.15;12.45;;;;;;;26.63;55.07;100576.88;4957343;28;20563;-86
2022/07/21 06:01:13;;;;;;;27.17;11.65;;;;;;;26.98;54.31;100579.72;4939137;28;20039;-89
2022/07/21 06:03:42;;;;;;;24.50;12.68;;;;;;;27.17;54.06;100583.59;4975959;28;20110;-86
2022/07/21 06:06:09;;;;;;;23.60;12.77;;;;;;;27.17;53.89;100580.03;4956262;28;20043;-84
2022/07/21 06:08:37;;;;;;;24.33;12.55;;;;;;;27.38;54.07;100584.41;4957014;29;20028;-87
2022/07/21 06:11:02;;;;;;;30.40;13.18;;;;;;;27.73;52.48;100581.72;4935444;28;20042;-87
2022/07/21 06:13:51;;;;;;;21.38;10.88;;;;;;;28.02;51.54;100590.13;4939134;28;20028;-89
2022/07/21 06:16:17;;;;;;;20.58;10.60;;;;;;;28.28;50.12;100590.09;4943858;28;20030;-88
2022/07/21 06:18:43;;;;;;;19.15;11.63;;;;;;;28.63;50.13;100600.88;4971924;28;20031;-89
2022/07/21 06:21:08;;;;;;;23.92;12.02;;;;;;;28.62;48.32;100600.06;4936824;29;20484;-87
2022/07/21 06:48:41;;;;;;;28.13;11.85;;;;;;;30.54;44.84;100604.06;4510680;23;20038;-84
2022/07/21 06:59:50;;;;;;;26.40;11.77;;;;;;;31.60;41.63;100596.28;5047019;23;20073;-82
2022/07/21 07:03:08;;;;;;;18.80;12.25;;;;;;;31.54;42.21;100608.47;4988634;28;20050;-80
2022/07/21 07:05:39;;;;;;;30.52;11.32;;;;;;;32.31;40.03;100606.00;4998557;28;20082;-79
2022/07/21 07:20:28;;;;;;;22.10;11.07;;;;;;;31.64;40.36;100622.81;4883303;23;19941;-80
2022/07/21 07:28:49;;;;;;;;;;;;;;;32.49;40.07;100622.34;5141462;22;20035;-90
2022/07/21 07:34:11;;;;;;;34.08;10.07;;;;;;;32.72;39.37;100620.53;5048651;23;20063;-78
2022/07/21 07:37:24;;;;;;;19.20;10.57;;;;;;;32.49;39.56;100627.03;4973041;28;20055;-82
2022/07/21 07:43:00;;;;;;;27.38;11.05;;;;;;;32.52;38.71;100623.69;5032168;23;20051;-78
2022/07/21 07:45:47;;;;;;;25.30;11.23;;;;;;;32.78;38.26;100619.31;4959267;29;20043;-78
2022/07/21 07:48:54;;;;;;;16.95;9.35;;;;;;;34.68;35.36;100614.03;4978477;28;20023;-80
2022/07/21 07:51:31;;;;;;;20.95;10.52;;;;;;;34.16;35.19;100622.09;4976902;28;20102;-79
2022/07/21 07:54:07;;;;;;;17.02;9.90;;;;;;;34.02;35.37;100621.34;4964574;28;20112;-79
2022/07/21 07:56:39;;;;;;;18.63;7.07;;;;;;;35.20;34.07;100618.50;4970522;28;20026;-80
2022/07/21 07:59:19;;;;;;;26.02;10.63;;;;;;;35.18;33.11;100619.97;4981043;28;20034;-77
2022/07/21 08:01:50;;;;;;;20.52;12.07;;;;;;;34.13;34.94;100619.97;5004179;23;20043;-81
2022/07/21 08:04:16;;;;;;;17.20;11.65;;;;;;;34.47;34.42;100618.50;4964142;28;20077;-81
2022/07/21 08:06:42;;;;;;;18.15;8.80;;;;;;;35.07;34.00;100619.44;4992841;28;20117;-82
2022/07/21 08:09:25;;;;;;;23.55;8.25;;;;;;;35.16;33.30;100617.56;4964769;28;20460;-80
2022/07/21 08:11:51;;;;;;;23.60;7.68;;;;;;;35.37;32.64;100622.41;4965831;28;20031;-81
2022/07/21 08:14:17;;;;;;;22.67;8.20;;;;;;;34.56;34.58;100614.63;4967086;28;20033;-83
2022/07/21 08:16:46;;;;;;;17.13;8.30;;;;;;;35.35;33.19;100619.16;4952321;28;20042;-82
2022/07/21 08:19:12;;;;;;;19.92;10.80;;;;;;;34.46;34.28;100614.13;4967231;28;20043;-82
2022/07/21 08:21:41;;;;;;;18.08;11.25;;;;;;;33.87;35.23;100623.69;4984375;28;20034;-84
2022/07/21 08:24:11;;;;;;;20.73;10.15;;;;;;;33.88;35.18;100628.84;4983798;23;20046;-83
2022/07/21 08:26:37;;;;;;;21.13;8.25;;;;;;;34.08;35.10;100617.31;4944620;29;20075;-81
2022/07/21 08:29:08;;;;;;;23.98;9.98;;;;;;;34.19;34.00;100618.72;4948747;29;20066;-81
2022/07/21 08:31:37;;;;;;;13.98;8.00;;;;;;;34.92;33.09;100617.16;4936206;29;20042;-82
2022/07/21 08:34:02;;;;;;;13.38;7.80;;;;;;;34.50;34.03;100609.59;4936502;29;20032;-81
2022/07/21 08:36:31;;;;;;;15.82;9.13;;;;;;;34.55;33.77;100609.44;4969921;29;20122;-79
2022/07/21 08:39:02;;;;;;;20.65;8.43;;;;;;;35.15;32.50;100612.34;4959601;29;20099;-80
2022/07/21 08:41:28;;;;;;;17.35;7.93;;;;;;;35.13;32.55;100612.66;4980377;28;20046;-81
2022/07/21 08:43:54;;;;;;;19.27;7.53;;;;;;;35.60;32.06;100612.84;4933015;28;20054;-82
2022/07/21 08:46:28;;;;;;;25.60;9.32;;;;;;;34.83;32.93;100604.53;4962376;29;20043;-81
2022/07/21 08:48:57;;;;;;;13.30;7.60;;;;;;;35.50;31.98;100607.66;4956591;29;20032;-81
2022/07/21 08:51:26;;;;;;;19.00;7.20;;;;;;;36.60;30.56;100605.72;4944699;28;20050;-80
2022/07/21 08:53:51;;;;;;;28.58;7.97;;;;;;;36.57;30.54;100608.34;4956084;29;20443;-79
2022/07/21 08:56:17;;;;;;;18.55;7.88;;;;;;;36.62;30.67;100608.16;4963262;28;20064;-79
2022/07/21 08:58:55;;;;;;;19.85;7.18;;;;;;;36.70;29.20;100612.81;4974149;28;20494;-81
2022/07/21 09:01:24;;;;;;;16.52;7.10;;;;;;;36.45;28.89;100616.50;4954166;28;20520;-79
2022/07/21 09:03:51;;;;;;;20.10;7.30;;;;;;;36.38;29.40;100624.50;4967292;28;20119;-78
2022/07/21 09:06:22;;;;;;;16.92;7.53;;;;;;;35.64;30.89;100613.81;4965415;29;20035;-83
2022/07/21 09:08:58;;;;;;;12.90;6.80;;;;;;;35.28;31.33;100614.94;4964495;29;20035;-79
2022/07/21 09:11:27;;;;;;;15.70;7.03;;;;;;;35.87;30.67;100623.50;4967049;29;20058;-81
2022/07/21 09:14:07;;;;;;;18.10;6.70;;;;;;;35.55;31.06;100613.00;4970141;29;20045;-80
2022/07/21 09:16:35;;;;;;;11.30;6.78;;;;;;;35.83;30.91;100618.97;4970075;28;20035;-83
2022/07/21 09:19:05;;;;;;;20.52;7.43;;;;;;;36.03;30.62;100613.53;4952195;29;20039;-80
2022/07/21 09:21:40;;;;;;;14.38;6.93;;;;;;;36.33;29.97;100610.88;4951174;29;20039;-81
2022/07/21 09:24:14;;;;;;;15.82;6.78;;;;;;;36.22;29.87;100608.50;4951583;28;20142;-82
2022/07/21 09:27:04;;;;;;;14.85;7.13;;;;;;;36.08;30.11;100610.66;4969563;28;20041;-82
2022/07/21 09:29:49;;;;;;;16.00;6.78;;;;;;;36.57;29.36;100605.56;4969148;28;20031;-80
2022/07/21 09:32:22;;;;;;;15.18;6.35;;;;;;;36.92;28.52;100607.00;4969977;28;20043;-80
2022/07/21 09:34:57;;;;;;;11.65;6.50;;;;;;;37.20;27.95;100607.28;4969609;28;20031;-79
2022/07/21 09:37:24;;;;;;;15.60;6.60;;;;;;;36.99;27.80;100607.22;4953596;28;20050;-82
2022/07/21 09:39:55;;;;;;;14.65;6.78;;;;;;;35.92;29.28;100600.44;4932633;29;20043;-80
2022/07/21 09:42:39;;;;;;;11.13;6.97;;;;;;;35.99;28.96;100596.06;4969005;28;20055;-81
2022/07/21 09:45:38;;;;;;;11.23;6.28;;;;;;;36.34;29.15;100596.72;4950951;29;20528;-79
2022/07/21 09:48:26;;;;;;;14.63;6.18;;;;;;;36.50;28.15;100596.97;4974359;28;20046;-83
2022/07/21 09:51:29;;;;;;;9.82;6.22;;;;;;;36.56;28.09;100592.94;4963481;29;20077;-86
2022/07/21 09:54:25;;;;;;;10.80;5.90;;;;;;;36.58;28.08;100596.97;4949573;29;20055;-87
2022/07/21 09:56:57;;;;;;;14.02;6.03;;;;;;;36.39;27.81;100598.50;4970664;23;20063;-85
2022/07/21 10:10:00;;;;;;;12.23;5.70;;;;;;;36.76;26.45;100592.94;5108536;22;20051;-85
2022/07/21 10:12:27;;;;;;;10.73;5.32;;;;;;;36.41;26.58;100591.50;4981511;28;20149;-85
2022/07/21 10:14:53;;;;;;;15.10;5.18;;;;;;;36.00;26.88;100586.63;4964804;28;20042;-83
2022/07/21 10:17:22;;;;;;;9.05;5.05;;;;;;;35.84;27.03;100591.06;4964528;28;20408;-86
2022/07/21 10:20:09;;;;;;;15.10;5.30;;;;;;;36.11;26.88;100598.94;4964738;28;20092;-82
2022/07/21 10:23:03;;;;;;;13.43;4.90;;;;;;;36.19;26.36;100594.53;4964206;28;20470;-84
2022/07/21 10:25:30;;;;;;;9.73;4.60;;;;;;;36.19;25.84;100586.25;4966995;28;20066;-84
2022/07/21 10:28:14;;;;;;;13.48;4.85;;;;;;;36.39;25.88;100587.47;4984202;28;20047;-84
2022/07/21 10:30:41;;;;;;;13.70;3.75;;;;;;;36.38;25.41;100585.84;4983188;28;20058;-83
2022/07/21 10:33:07;;;;;;;16.90;4.60;;;;;;;37.10;24.41;100583.63;4965328;28;20089;-86
2022/07/21 10:35:33;;;;;;;8.93;4.00;;;;;;;37.07;23.91;100589.00;4984344;28;20089;-86
2022/07/21 10:38:00;;;;;;;8.90;3.78;;;;;;;37.04;24.02;100587.75;4986193;28;20043;-83
2022/07/21 10:40:26;;;;;;;11.20;4.07;;;;;;;36.89;24.07;100588.28;4966082;28;20038;-83
2022/07/21 10:43:03;;;;;;;16.23;4.68;;;;;;;36.88;24.13;100592.22;4981846;28;20027;-86
2022/07/21 10:45:37;;;;;;;11.65;3.65;;;;;;;36.49;24.51;100581.56;4965206;28;20035;-84
2022/07/21 10:48:27;;;;;;;6.75;3.15;;;;;;;36.76;23.95;100589.38;4965036;28;20045;-86
2022/07/21 10:51:00;;;;;;;9.18;3.50;;;;;;;36.81;23.50;100582.84;4964267;28;20433;-87
2022/07/21 10:53:29;;;;;;;12.73;4.10;;;;;;;36.84;23.98;100582.16;4982469;28;20039;-85
2022/07/21 10:55:55;;;;;;;10.60;3.35;;;;;;;37.19;23.30;100576.06;4981904;28;20130;-83
2022/07/21 10:58:41;;;;;;;8.30;3.60;;;;;;;37.60;22.79;100583.50;4984206;28;20030;-85
2022/07/21 11:01:28;;;;;;;6.68;3.47;;;;;;;37.21;22.67;100578.50;4982492;28;20457;-84
2022/07/21 11:04:20;;;;;;;12.30;3.50;;;;;;;37.51;22.22;100579.22;4981798;28;20098;-87
2022/07/21 11:09:29;;;;;;;6.82;3.30;;;;;;;37.79;22.52;100580.19;4955666;26;20035;-83
2022/07/21 11:12:06;;;;;;;14.48;3.63;;;;;;;37.83;21.39;100575.59;4966067;28;20039;-84
2022/07/21 11:14:51;;;;;;;10.45;3.88;;;;;;;37.55;21.67;100577.38;4983081;28;20031;-83
2022/07/21 11:17:29;;;;;;;13.98;3.58;;;;;;;37.17;21.81;100578.34;4981150;28;20045;-85
2022/07/21 11:19:59;;;;;;;8.07;3.40;;;;;;;37.46;21.79;100566.41;4980966;28;20042;-82
2022/07/21 11:22:27;;;;;;;11.68;3.70;;;;;;;37.35;22.06;100569.91;4964309;28;20042;-82
2022/07/21 11:25:03;;;;;;;7.25;3.08;;;;;;;37.50;21.96;100561.00;4965449;28;20042;-80
2022/07/21 11:27:30;;;;;;;11.85;3.70;;;;;;;37.19;21.99;100556.69;4972812;28;20054;-86
2022/07/21 11:30:02;;;;;;;10.65;3.08;;;;;;;37.35;21.67;100550.56;4972652;28;20031;-84
2022/07/21 11:32:28;;;;;;;5.40;3.50;;;;;;;37.80;21.58;100545.84;4966851;28;20122;-81
2022/07/21 11:35:00;;;;;;;4.13;2.55;;;;;;;37.47;22.37;100556.16;4972744;28;20042;-81
2022/07/21 11:37:37;;;;;;;9.15;3.17;;;;;;;36.87;23.37;100540.84;4953248;29;20062;-87
2022/07/21 11:40:09;;;;;;;6.07;2.80;;;;;;;36.77;23.44;100538.50;4954080;29;20054;-85
2022/07/21 11:42:36;;;;;;;6.07;2.45;;;;;;;36.36;23.89;100532.91;4952293;29;20027;-87
2022/07/21 11:45:05;;;;;;;7.47;3.00;;;;;;;36.42;24.74;100526.06;4931631;29;20063;-85
2022/07/21 11:47:31;;;;;;;10.77;3.25;;;;;;;36.48;24.34;100530.22;4959990;29;20122;-84
2022/07/21 11:50:00;;;;;;;9.52;3.30;;;;;;;35.95;24.50;100517.84;4928410;29;20094;-87
2022/07/21 11:52:32;;;;;;;7.65;2.85;;;;;;;35.67;24.69;100524.91;4946654;29;20035;-83
2022/07/21 11:54:59;;;;;;;10.20;3.10;;;;;;;35.68;24.74;100512.75;4957826;28;20050;-85
2022/07/21 11:57:26;;;;;;;14.25;3.38;;;;;;;35.39;25.03;100515.38;4957490;29;20031;-84
2022/07/21 11:59:53;;;;;;;7.72;3.05;;;;;;;35.60;25.08;100517.13;4958528;29;20061;-85
2022/07/21 12:02:20;;;;;;;6.93;2.60;;;;;;;35.73;25.60;100509.81;4926938;29;20040;-83
2022/07/21 12:04:47;;;;;;;7.60;2.35;;;;;;;35.64;25.99;100506.25;4965708;28;20038;-84
2022/07/21 12:07:20;;;;;;;15.52;3.60;;;;;;;35.58;26.02;100499.28;4968641;29;20043;-84
2022/07/21 12:13:14;;;;;;;7.35;2.58;;;;;;;35.19;26.46;100501.16;4981398;29;20095;-85
2022/07/21 12:15:41;;;;;;;8.35;3.22;;;;;;;35.22;26.59;100506.03;4966272;28;20034;-85
2022/07/21 12:18:24;;;;;;;11.20;2.85;;;;;;;35.46;26.31;100502.72;4982282;28;20043;-84
2022/07/21 12:21:01;;;;;;;4.78;2.80;;;;;;;35.51;26.35;100496.22;4981027;28;20074;-83
2022/07/21 12:23:31;;;;;;;6.60;2.83;;;;;;;35.47;26.12;100495.25;4972885;29;20050;-85
2022/07/21 12:26:02;;;;;;;6.65;2.67;;;;;;;35.35;26.23;100492.38;4962499;29;20043;-85
2022/07/21 12:28:44;;;;;;;6.37;3.13;;;;;;;35.11;26.40;100485.44;4961477;29;20144;-83
2022/07/21 12:31:14;;;;;;;7.68;3.05;;;;;;;35.09;26.89;100484.13;4962934;29;20281;-85
2022/07/21 12:33:42;;;;;;;7.30;2.83;;;;;;;35.11;26.17;100477.19;4933085;29;20027;-86
2022/07/21 12:36:09;;;;;;;6.07;3.03;;;;;;;35.24;26.04;100487.19;4968260;29;20118;-80
2022/07/21 12:38:43;;;;;;;5.50;3.15;;;;;;;35.25;26.32;100480.56;4963199;29;20036;-84
2022/07/21 12:41:43;;;;;;;12.50;2.88;;;;;;;35.24;26.75;100473.44;4967867;29;20035;-88
2022/07/21 12:44:09;;;;;;;7.90;3.17;;;;;;;35.26;26.79;100473.91;4944252;29;20065;-84
2022/07/21 12:46:38;;;;;;;12.40;3.28;;;;;;;35.40;27.06;100476.47;4959094;29;20071;-85
2022/07/21 12:49:05;;;;;;;15.82;3.35;;;;;;;35.34;27.50;100468.69;4958610;29;20079;-83